Sal, Cape Verde
Current Conditions -  °F | °C
As of 9:00 PM on Saturday 25 Oct 2014 (Local Time) from GVAC Reporting Station
Broken Clouds Broken Clouds  
Wind Chill: 77°   Ceiling: 20000
Heat Index: 78°   Visibility: 6mi
Dew Point: 75°   Wind: 10mph
Humidity: 94%   Direction: 10°N
Pressure: 29.94"   Gusts: NA
Location:  16.72°N, 22.93°W
Report Text: GVAC 252200Z 01009KT 9999 FEW014 BKN200 25/24 Q1014 NOSIG
Loading
Personal Weather Stations






























Interactive Weather Map
Tropical Storm Tracking
New forecast layout! Learn more

10-Day Weather Forecast

Advertisements
Track Severe Weather on mobile